Time;durP1;ratioP1;P1;durP2;ratioP2;P2;SDS_P1;SDS_P2;PMS_P1;PMS_P2;Temp;Humidity;BMP_temperature;BMP_pressure;BME280_temperature;BME280_humidity;BME280_pressure;Samples;Min_cycle;Max_cycle;Signal;HPM_P1;HPM_P2
2023/06/29 00:00:00;;;;;;;1999.90;999.90;;;;;;;;;;5067437;28;20102;-80
2023/06/29 00:02:26;;;;;;;1999.90;999.90;;;;;;;;;;5075475;28;20048;-82
2023/06/29 00:04:54;;;;;;;1999.90;999.90;;;;;;;;;;5079735;28;20052;-82
2023/06/29 00:07:20;;;;;;;1999.90;999.90;;;;;;;;;;5071692;28;20091;-82
2023/06/29 00:09:48;;;;;;;1999.90;999.90;;;;;;;;;;5077338;28;20040;-80
2023/06/29 00:12:14;;;;;;;1999.90;999.90;;;;;;;;;;5069156;28;20051;-80
2023/06/29 00:14:41;;;;;;;1999.90;999.90;;;;;;;;;;5064264;28;20409;-80
2023/06/29 00:17:07;;;;;;;1999.90;999.90;;;;;;;;;;5069213;28;20044;-82
2023/06/29 00:19:35;;;;;;;1999.90;999.90;;;;;;;;;;5075103;28;20052;-82
2023/06/29 00:22:01;;;;;;;1999.90;999.90;;;;;;;;;;5064210;28;20131;-81
2023/06/29 00:24:28;;;;;;;1999.90;999.90;;;;;;;;;;5074537;28;20056;-80
2023/06/29 00:26:56;;;;;;;1999.90;999.90;;;;;;;;;;5068146;28;20127;-80
2023/06/29 00:29:22;;;;;;;1999.90;999.90;;;;;;;;;;5066755;28;20044;-81
2023/06/29 00:31:49;;;;;;;1999.90;999.90;;;;;;;;;;5075205;28;20070;-81
2023/06/29 00:34:15;;;;;;;1999.90;999.90;;;;;;;;;;5075133;28;20048;-81
2023/06/29 00:36:42;;;;;;;1999.90;999.90;;;;;;;;;;5066895;28;20055;-81
2023/06/29 00:39:09;;;;;;;1999.90;999.90;;;;;;;;;;5078540;28;20045;-80
2023/06/29 00:41:35;;;;;;;1999.90;999.90;;;;;;;;;;5067409;28;20040;-81
2023/06/29 00:44:03;;;;;;;1999.90;999.90;;;;;;;;;;5066344;28;20430;-80
2023/06/29 00:46:30;;;;;;;1999.90;999.90;;;;;;;;;;5078218;28;20067;-80
2023/06/29 00:48:56;;;;;;;1999.90;999.90;;;;;;;;;;5079848;28;20511;-80
2023/06/29 00:51:23;;;;;;;1999.90;999.90;;;;;;;;;;5075931;28;20055;-81
2023/06/29 00:53:49;;;;;;;1999.90;999.90;;;;;;;;;;5081426;28;20495;-81
2023/06/29 00:56:16;;;;;;;1999.90;999.90;;;;;;;;;;5071570;28;20051;-81
2023/06/29 00:58:42;;;;;;;1999.90;999.90;;;;;;;;;;5068053;28;20063;-80
2023/06/29 01:01:10;;;;;;;1999.90;999.90;;;;;;;;;;5077218;28;20488;-81
2023/06/29 01:03:40;;;;;;;1999.90;999.90;;;;;;;;;;5079526;28;20044;-81
2023/06/29 01:06:10;;;;;;;1999.90;999.90;;;;;;;;;;5071302;28;20549;-81
2023/06/29 01:08:38;;;;;;;1999.90;999.90;;;;;;;;;;5074648;28;20101;-81
2023/06/29 01:11:04;;;;;;;1999.90;999.90;;;;;;;;;;5070705;28;20052;-81
2023/06/29 01:13:32;;;;;;;1999.90;999.90;;;;;;;;;;5065905;28;20423;-81
2023/06/29 01:15:58;;;;;;;1999.90;999.90;;;;;;;;;;5074535;28;20109;-81
2023/06/29 01:18:26;;;;;;;1999.90;999.90;;;;;;;;;;5078713;28;20054;-81
2023/06/29 01:20:54;;;;;;;1999.90;999.90;;;;;;;;;;5064393;28;20045;-80
2023/06/29 01:23:24;;;;;;;1999.90;999.90;;;;;;;;;;5071054;28;20044;-81
2023/06/29 01:25:52;;;;;;;1999.90;999.90;;;;;;;;;;5072245;28;20049;-81
2023/06/29 01:28:19;;;;;;;1999.90;999.90;;;;;;;;;;5069630;28;20052;-81
2023/06/29 01:30:48;;;;;;;1999.90;999.90;;;;;;;;;;5074599;28;20043;-81
2023/06/29 01:33:15;;;;;;;1999.90;999.90;;;;;;;;;;5069464;28;20049;-80
2023/06/29 01:35:42;;;;;;;1999.90;999.90;;;;;;;;;;5066816;28;20099;-81
2023/06/29 01:38:12;;;;;;;1999.90;999.90;;;;;;;;;;5073692;28;20044;-80
2023/06/29 01:40:40;;;;;;;1999.90;999.90;;;;;;;;;;5069947;28;20045;-80
2023/06/29 01:43:08;;;;;;;1999.90;999.90;;;;;;;;;;5064429;28;20056;-81
2023/06/29 01:45:35;;;;;;;1999.90;999.90;;;;;;;;;;5076409;28;20052;-81
2023/06/29 01:48:03;;;;;;;1999.90;999.90;;;;;;;;;;5073100;28;20052;-81
2023/06/29 01:50:29;;;;;;;1999.90;999.90;;;;;;;;;;5067281;28;20489;-80
2023/06/29 01:52:56;;;;;;;1999.90;999.90;;;;;;;;;;5074471;28;20040;-80
2023/06/29 01:55:23;;;;;;;1999.90;999.90;;;;;;;;;;5073792;28;20048;-80
2023/06/29 01:57:49;;;;;;;1999.90;999.90;;;;;;;;;;5065746;28;20049;-81
2023/06/29 02:00:17;;;;;;;1999.90;999.90;;;;;;;;;;5083406;28;20164;-81
2023/06/29 02:02:44;;;;;;;1999.90;999.90;;;;;;;;;;5079708;28;20040;-81
2023/06/29 02:05:10;;;;;;;1999.90;999.90;;;;;;;;;;5070463;28;20037;-81
2023/06/29 02:07:37;;;;;;;1999.90;999.90;;;;;;;;;;5078570;28;20483;-82
2023/06/29 02:10:04;;;;;;;1999.90;999.90;;;;;;;;;;5076092;28;20056;-81
2023/06/29 02:12:30;;;;;;;1999.90;999.90;;;;;;;;;;5069504;28;20044;-81
2023/06/29 02:14:57;;;;;;;1999.90;999.90;;;;;;;;;;5083781;28;20045;-81
2023/06/29 02:17:25;;;;;;;1999.90;999.90;;;;;;;;;;5076143;28;20815;-81
2023/06/29 02:19:51;;;;;;;1999.90;999.90;;;;;;;;;;5068196;28;20384;-81
2023/06/29 02:22:17;;;;;;;1999.90;999.90;;;;;;;;;;5073959;28;20048;-82
2023/06/29 02:24:44;;;;;;;1999.90;999.90;;;;;;;;;;5077337;28;20053;-82
2023/06/29 02:27:10;;;;;;;1999.90;999.90;;;;;;;;;;5070236;28;20121;-81
2023/06/29 02:29:37;;;;;;;1999.90;999.90;;;;;;;;;;5080142;28;20045;-82
2023/06/29 02:32:04;;;;;;;1999.90;999.90;;;;;;;;;;5077510;28;20048;-81
2023/06/29 02:34:32;;;;;;;1999.90;999.90;;;;;;;;;;5073494;28;20072;-81
2023/06/29 02:36:58;;;;;;;1999.90;999.90;;;;;;;;;;5077373;28;20056;-82
2023/06/29 02:39:24;;;;;;;1999.90;999.90;;;;;;;;;;5070020;28;20493;-81
2023/06/29 02:41:51;;;;;;;1999.90;999.90;;;;;;;;;;5068376;28;20412;-81
2023/06/29 02:44:17;;;;;;;1999.90;999.90;;;;;;;;;;5080806;28;20048;-81
2023/06/29 02:46:44;;;;;;;1999.90;999.90;;;;;;;;;;5079688;28;20051;-81
2023/06/29 02:49:11;;;;;;;1999.90;999.90;;;;;;;;;;5074866;28;20056;-82
2023/06/29 02:51:39;;;;;;;1999.90;999.90;;;;;;;;;;5076225;28;20045;-81
2023/06/29 02:54:06;;;;;;;1999.90;999.90;;;;;;;;;;5078649;28;20046;-82
2023/06/29 02:56:32;;;;;;;1999.90;999.90;;;;;;;;;;5071707;28;20051;-82
2023/06/29 02:59:00;;;;;;;1999.90;999.90;;;;;;;;;;5081102;28;20480;-81
2023/06/29 03:01:27;;;;;;;1999.90;999.90;;;;;;;;;;5079552;28;20403;-81
2023/06/29 03:03:53;;;;;;;1999.90;999.90;;;;;;;;;;5074274;28;20052;-81
2023/06/29 03:06:19;;;;;;;1999.90;999.90;;;;;;;;;;5080950;28;20070;-81
2023/06/29 03:08:48;;;;;;;1999.90;999.90;;;;;;;;;;5083278;28;20504;-81
2023/06/29 03:11:14;;;;;;;1999.90;999.90;;;;;;;;;;5069173;28;20139;-82
2023/06/29 03:13:41;;;;;;;1999.90;999.90;;;;;;;;;;5083856;28;20048;-81
2023/06/29 03:16:09;;;;;;;1999.90;999.90;;;;;;;;;;5082086;28;20055;-81
2023/06/29 03:18:35;;;;;;;1999.90;999.90;;;;;;;;;;5070586;28;20052;-81
2023/06/29 03:21:02;;;;;;;1999.90;999.90;;;;;;;;;;5075371;28;20085;-81
2023/06/29 03:23:29;;;;;;;1999.90;999.90;;;;;;;;;;5082341;28;20049;-80
2023/06/29 03:25:56;;;;;;;1999.90;999.90;;;;;;;;;;5068742;28;20050;-80
2023/06/29 03:28:23;;;;;;;1999.90;999.90;;;;;;;;;;5078085;28;20057;-81
2023/06/29 03:30:49;;;;;;;1999.90;999.90;;;;;;;;;;5074100;28;20037;-81
2023/06/29 03:33:16;;;;;;;1999.90;999.90;;;;;;;;;;5066119;28;20048;-81
2023/06/29 03:35:42;;;;;;;1999.90;999.90;;;;;;;;;;5072414;28;20372;-81
2023/06/29 03:38:09;;;;;;;1999.90;999.90;;;;;;;;;;5075459;28;20060;-81
2023/06/29 03:40:36;;;;;;;1999.90;999.90;;;;;;;;;;5070786;28;20408;-81
2023/06/29 03:43:03;;;;;;;1999.90;999.90;;;;;;;;;;5071951;28;20052;-80
2023/06/29 03:45:31;;;;;;;1999.90;999.90;;;;;;;;;;5071595;28;20045;-81
2023/06/29 03:47:58;;;;;;;1999.90;999.90;;;;;;;;;;5068621;28;20052;-80
2023/06/29 03:50:24;;;;;;;1999.90;999.90;;;;;;;;;;5071792;28;20044;-76
2023/06/29 03:52:51;;;;;;;1999.90;999.90;;;;;;;;;;5075313;28;20069;-75
2023/06/29 03:55:18;;;;;;;1999.90;999.90;;;;;;;;;;5071546;28;20067;-76
2023/06/29 03:57:45;;;;;;;1999.90;999.90;;;;;;;;;;5075215;28;20060;-76
2023/06/29 04:00:13;;;;;;;1999.90;999.90;;;;;;;;;;5076810;28;20487;-76
2023/06/29 04:02:41;;;;;;;1999.90;999.90;;;;;;;;;;5069280;28;20095;-75
2023/06/29 04:05:08;;;;;;;1999.90;999.90;;;;;;;;;;5070020;28;20045;-77
2023/06/29 04:07:34;;;;;;;1999.90;999.90;;;;;;;;;;5073626;28;20052;-76
2023/06/29 04:10:01;;;;;;;1999.90;999.90;;;;;;;;;;5070176;28;20049;-76
2023/06/29 04:12:28;;;;;;;1999.90;999.90;;;;;;;;;;5071684;28;20044;-76
2023/06/29 04:14:54;;;;;;;1999.90;999.90;;;;;;;;;;5073095;28;20500;-76
2023/06/29 04:17:22;;;;;;;1999.90;999.90;;;;;;;;;;5066510;28;20047;-77
2023/06/29 04:19:48;;;;;;;1999.90;999.90;;;;;;;;;;5069468;28;20048;-76
2023/06/29 04:22:14;;;;;;;1999.90;999.90;;;;;;;;;;5063791;28;20055;-76
2023/06/29 04:24:41;;;;;;;1999.90;999.90;;;;;;;;;;5065675;28;20044;-76
2023/06/29 04:27:07;;;;;;;1999.90;999.90;;;;;;;;;;5067694;28;20064;-76
2023/06/29 04:29:34;;;;;;;1999.90;999.90;;;;;;;;;;5068593;28;20052;-76
2023/06/29 04:32:00;;;;;;;1999.90;999.90;;;;;;;;;;5066303;28;20052;-76
2023/06/29 04:34:28;;;;;;;1999.90;999.90;;;;;;;;;;5072521;28;20549;-77
2023/06/29 04:36:56;;;;;;;1999.90;999.90;;;;;;;;;;5064992;28;20049;-76
2023/06/29 04:39:22;;;;;;;1999.90;999.90;;;;;;;;;;5066672;28;20049;-76
2023/06/29 04:41:49;;;;;;;1999.90;999.90;;;;;;;;;;5070272;28;20055;-76
2023/06/29 04:44:15;;;;;;;1999.90;999.90;;;;;;;;;;5070157;28;20041;-76
2023/06/29 04:46:42;;;;;;;1999.90;999.90;;;;;;;;;;5066237;28;20051;-76
2023/06/29 04:49:09;;;;;;;1999.90;999.90;;;;;;;;;;5075836;28;20051;-76
2023/06/29 04:51:38;;;;;;;1999.90;999.90;;;;;;;;;;5071275;28;20115;-76
2023/06/29 04:54:05;;;;;;;1999.90;999.90;;;;;;;;;;5065759;28;20075;-76
2023/06/29 04:56:31;;;;;;;1999.90;999.90;;;;;;;;;;5073263;28;20483;-76
2023/06/29 04:58:58;;;;;;;1999.90;999.90;;;;;;;;;;5069757;28;20037;-76
2023/06/29 05:01:25;;;;;;;1999.90;999.90;;;;;;;;;;5062183;28;20067;-76
2023/06/29 05:03:51;;;;;;;1999.90;999.90;;;;;;;;;;5073610;28;20055;-77
2023/06/29 05:06:17;;;;;;;1999.90;999.90;;;;;;;;;;5071091;28;20047;-78
2023/06/29 05:08:45;;;;;;;1999.90;999.90;;;;;;;;;;5066637;28;20048;-78
2023/06/29 05:11:12;;;;;;;1999.90;999.90;;;;;;;;;;5072790;28;20056;-75
2023/06/29 05:13:38;;;;;;;1999.90;999.90;;;;;;;;;;5071249;28;20036;-76
2023/06/29 05:16:05;;;;;;;1999.90;999.90;;;;;;;;;;5065771;28;20070;-77
2023/06/29 05:18:32;;;;;;;1999.90;999.90;;;;;;;;;;5074284;28;20047;-76
2023/06/29 05:20:58;;;;;;;1999.90;999.90;;;;;;;;;;5066675;28;20049;-77
2023/06/29 05:23:25;;;;;;;1999.90;999.90;;;;;;;;;;5067426;28;20427;-76
2023/06/29 05:25:52;;;;;;;1999.90;999.90;;;;;;;;;;5070882;28;20419;-76
2023/06/29 05:28:19;;;;;;;1999.90;999.90;;;;;;;;;;5067348;28;20048;-76
2023/06/29 05:30:45;;;;;;;1999.90;999.90;;;;;;;;;;5066084;28;20048;-76
2023/06/29 05:33:12;;;;;;;1999.90;999.90;;;;;;;;;;5065978;28;20098;-76
2023/06/29 05:35:38;;;;;;;1999.90;999.90;;;;;;;;;;5067362;28;20036;-76
2023/06/29 05:38:05;;;;;;;1999.90;999.90;;;;;;;;;;5060768;28;20055;-77
2023/06/29 05:40:32;;;;;;;1999.90;999.90;;;;;;;;;;5075183;28;20435;-76
2023/06/29 05:43:00;;;;;;;1999.90;999.90;;;;;;;;;;5069852;28;20044;-76
2023/06/29 05:45:26;;;;;;;1999.90;999.90;;;;;;;;;;5064561;28;20044;-76
2023/06/29 05:47:54;;;;;;;1999.90;999.90;;;;;;;;;;5068652;28;20047;-76
2023/06/29 05:50:24;;;;;;;1999.90;999.90;;;;;;;;;;5069507;28;20041;-76
2023/06/29 05:52:50;;;;;;;1999.90;999.90;;;;;;;;;;5066248;28;20051;-76
2023/06/29 05:55:17;;;;;;;1999.90;999.90;;;;;;;;;;5066199;28;20541;-76
2023/06/29 05:57:43;;;;;;;1999.90;999.90;;;;;;;;;;5069957;28;20056;-76
2023/06/29 06:00:12;;;;;;;1999.90;999.90;;;;;;;;;;5067268;28;20135;-77
2023/06/29 06:02:39;;;;;;;1999.90;999.90;;;;;;;;;;5064298;28;20049;-76
2023/06/29 06:05:07;;;;;;;1999.90;999.90;;;;;;;;;;5060403;28;20480;-76
2023/06/29 06:07:34;;;;;;;1999.90;999.90;;;;;;;;;;5065017;28;20098;-76
2023/06/29 06:10:01;;;;;;;1999.90;999.90;;;;;;;;;;5069906;28;20068;-76
2023/06/29 06:12:28;;;;;;;1999.90;999.90;;;;;;;;;;5068596;28;20045;-76
2023/06/29 06:14:54;;;;;;;1999.90;999.90;;;;;;;;;;5063521;28;20048;-76
2023/06/29 06:17:22;;;;;;;1999.90;999.90;;;;;;;;;;5060136;28;20484;-77
2023/06/29 06:19:49;;;;;;;1999.90;999.90;;;;;;;;;;5067082;28;20392;-77
2023/06/29 06:22:15;;;;;;;1999.90;999.90;;;;;;;;;;5068004;28;20427;-76
2023/06/29 06:24:42;;;;;;;1999.90;999.90;;;;;;;;;;5063669;28;20047;-76
2023/06/29 06:27:08;;;;;;;1999.90;999.90;;;;;;;;;;5060456;28;20045;-76
2023/06/29 06:29:34;;;;;;;1999.90;999.90;;;;;;;;;;5065568;28;20052;-76
2023/06/29 06:32:01;;;;;;;1999.90;999.90;;;;;;;;;;5067637;28;20059;-77
2023/06/29 06:34:30;;;;;;;1999.90;999.90;;;;;;;;;;5068387;28;20048;-76
2023/06/29 06:36:57;;;;;;;1999.90;999.90;;;;;;;;;;5066027;28;20057;-76
2023/06/29 06:39:24;;;;;;;1999.90;999.90;;;;;;;;;;5068658;28;20392;-76
2023/06/29 06:41:50;;;;;;;1999.90;999.90;;;;;;;;;;5070447;28;20324;-77
2023/06/29 06:44:17;;;;;;;1999.90;999.90;;;;;;;;;;5065258;28;20045;-76
2023/06/29 06:46:43;;;;;;;1999.90;999.90;;;;;;;;;;5072663;28;20052;-76
2023/06/29 06:49:10;;;;;;;1999.90;999.90;;;;;;;;;;5073103;28;20052;-77
2023/06/29 06:51:37;;;;;;;1999.90;999.90;;;;;;;;;;5070064;28;20044;-76
2023/06/29 06:54:04;;;;;;;1999.90;999.90;;;;;;;;;;5072766;28;20052;-76
2023/06/29 06:56:31;;;;;;;1999.90;999.90;;;;;;;;;;5077362;28;20052;-76
2023/06/29 06:58:57;;;;;;;1999.90;999.90;;;;;;;;;;5067473;28;20056;-76
2023/06/29 07:01:24;;;;;;;1999.90;999.90;;;;;;;;;;5070542;28;20049;-76
2023/06/29 07:03:51;;;;;;;1999.90;999.90;;;;;;;;;;5070709;28;20045;-76
2023/06/29 07:06:18;;;;;;;1999.90;999.90;;;;;;;;;;5065707;28;20477;-76
2023/06/29 07:08:46;;;;;;;1999.90;999.90;;;;;;;;;;5073986;28;20040;-76
2023/06/29 07:11:13;;;;;;;1999.90;999.90;;;;;;;;;;5073920;28;20072;-76
2023/06/29 07:13:39;;;;;;;1999.90;999.90;;;;;;;;;;5070978;28;20173;-77
2023/06/29 07:16:06;;;;;;;1999.90;999.90;;;;;;;;;;5072206;28;20052;-75
2023/06/29 07:18:35;;;;;;;1999.90;999.90;;;;;;;;;;5069173;28;20130;-76
2023/06/29 07:21:01;;;;;;;1999.90;999.90;;;;;;;;;;5063386;28;20048;-75
2023/06/29 07:23:28;;;;;;;1999.90;999.90;;;;;;;;;;5072777;28;20051;-75
2023/06/29 07:25:55;;;;;;;1999.90;999.90;;;;;;;;;;5067368;28;20048;-76
2023/06/29 07:28:22;;;;;;;1999.90;999.90;;;;;;;;;;5068620;28;20059;-77
2023/06/29 07:30:50;;;;;;;1999.90;999.90;;;;;;;;;;5066034;28;20041;-76
2023/06/29 07:33:16;;;;;;;1999.90;999.90;;;;;;;;;;5066131;28;20047;-76
2023/06/29 07:35:43;;;;;;;1999.90;999.90;;;;;;;;;;5068765;28;20052;-76
2023/06/29 07:38:10;;;;;;;1999.90;999.90;;;;;;;;;;5067232;28;20411;-77
2023/06/29 07:40:36;;;;;;;1999.90;999.90;;;;;;;;;;5071161;28;20048;-76
2023/06/29 07:43:04;;;;;;;1999.90;999.90;;;;;;;;;;5069971;28;20068;-75
2023/06/29 07:45:30;;;;;;;1999.90;999.90;;;;;;;;;;5067312;28;20061;-75
2023/06/29 07:47:57;;;;;;;1999.90;999.90;;;;;;;;;;5070395;28;20041;-76
2023/06/29 07:50:23;;;;;;;1999.90;999.90;;;;;;;;;;5065262;28;20389;-76
2023/06/29 07:52:50;;;;;;;1999.90;999.90;;;;;;;;;;5069357;28;20087;-76
2023/06/29 07:55:16;;;;;;;1999.90;999.90;;;;;;;;;;5077784;28;20504;-75
2023/06/29 07:57:43;;;;;;;1999.90;999.90;;;;;;;;;;5068398;28;20128;-75
2023/06/29 08:00:13;;;;;;;1999.90;999.90;;;;;;;;;;5066576;28;20071;-75
2023/06/29 08:02:40;;;;;;;1999.90;999.90;;;;;;;;;;5071573;28;20047;-75
2023/06/29 08:05:07;;;;;;;1999.90;999.90;;;;;;;;;;5066574;28;20037;-76
2023/06/29 08:07:34;;;;;;;1999.90;999.90;;;;;;;;;;5070307;28;20048;-76
2023/06/29 08:10:01;;;;;;;1999.90;999.90;;;;;;;;;;5078589;28;20080;-76
2023/06/29 08:12:27;;;;;;;1999.90;999.90;;;;;;;;;;5067137;28;20048;-75
2023/06/29 08:14:54;;;;;;;1999.90;999.90;;;;;;;;;;5060017;28;20051;-75
2023/06/29 08:17:21;;;;;;;1999.90;999.90;;;;;;;;;;5066891;28;20490;-74
2023/06/29 08:19:48;;;;;;;1999.90;999.90;;;;;;;;;;5070969;28;20068;-74
2023/06/29 08:22:14;;;;;;;1999.90;999.90;;;;;;;;;;5065748;28;20526;-74
2023/06/29 08:24:41;;;;;;;1999.90;999.90;;;;;;;;;;5070495;28;20043;-74
2023/06/29 08:27:07;;;;;;;1999.90;999.90;;;;;;;;;;5058131;28;20049;-74
2023/06/29 08:29:33;;;;;;;1999.90;999.90;;;;;;;;;;5062960;28;20063;-74
2023/06/29 08:32:00;;;;;;;1999.90;999.90;;;;;;;;;;5069170;28;20064;-74
2023/06/29 08:34:28;;;;;;;1999.90;999.90;;;;;;;;;;5070297;28;20506;-75
2023/06/29 08:36:54;;;;;;;1999.90;999.90;;;;;;;;;;5067495;28;20395;-75
2023/06/29 08:39:21;;;;;;;1999.90;999.90;;;;;;;;;;5069951;28;20111;-75
2023/06/29 08:41:47;;;;;;;1999.90;999.90;;;;;;;;;;5069483;28;20117;-75
2023/06/29 08:44:14;;;;;;;1999.90;999.90;;;;;;;;;;5061969;28;20530;-75
2023/06/29 08:46:42;;;;;;;1999.90;999.90;;;;;;;;;;5070817;28;20041;-74
2023/06/29 08:49:09;;;;;;;1999.90;999.90;;;;;;;;;;5067142;28;20056;-75
2023/06/29 08:51:38;;;;;;;1999.90;999.90;;;;;;;;;;5065280;28;20052;-75
2023/06/29 08:54:04;;;;;;;1999.90;999.90;;;;;;;;;;5074779;28;20055;-75
2023/06/29 08:56:31;;;;;;;1999.90;999.90;;;;;;;;;;5068830;28;20041;-75
2023/06/29 08:58:58;;;;;;;1999.90;999.90;;;;;;;;;;5063059;28;20048;-75
2023/06/29 09:01:24;;;;;;;1999.90;999.90;;;;;;;;;;5073188;28;20044;-75
2023/06/29 09:03:52;;;;;;;1999.90;999.90;;;;;;;;;;5067236;28;20056;-75
2023/06/29 09:06:18;;;;;;;1999.90;999.90;;;;;;;;;;5064643;28;20041;-74
2023/06/29 09:08:46;;;;;;;1999.90;999.90;;;;;;;;;;5069439;28;20558;-75
2023/06/29 09:11:13;;;;;;;1999.90;999.90;;;;;;;;;;5071230;28;20040;-76
2023/06/29 09:13:39;;;;;;;1999.90;999.90;;;;;;;;;;5064132;28;20102;-75
2023/06/29 09:16:06;;;;;;;1999.90;999.90;;;;;;;;;;5072824;28;20381;-75
2023/06/29 09:18:34;;;;;;;1999.90;999.90;;;;;;;;;;5068554;28;20558;-75
2023/06/29 09:21:00;;;;;;;1999.90;999.90;;;;;;;;;;5063967;28;20140;-75
2023/06/29 09:23:28;;;;;;;1999.90;999.90;;;;;;;;;;5072272;28;20123;-75
2023/06/29 09:25:57;;;;;;;1999.90;999.90;;;;;;;;;;5068932;28;20052;-75
2023/06/29 09:28:23;;;;;;;1999.90;999.90;;;;;;;;;;5065148;28;20048;-75
2023/06/29 09:30:50;;;;;;;1999.90;999.90;;;;;;;;;;5068070;28;20489;-74
2023/06/29 09:33:16;;;;;;;1999.90;999.90;;;;;;;;;;5068465;28;20072;-75
2023/06/29 09:35:45;;;;;;;1999.90;999.90;;;;;;;;;;5060961;28;20071;-75
2023/06/29 09:38:12;;;;;;;1999.90;999.90;;;;;;;;;;5070607;28;20065;-75
2023/06/29 09:40:48;;;;;;;1999.90;999.90;;;;;;;;;;5064883;28;20041;-75
2023/06/29 09:43:17;;;;;;;1999.90;999.90;;;;;;;;;;5065269;28;20049;-75
2023/06/29 09:45:43;;;;;;;1999.90;999.90;;;;;;;;;;5073760;28;20051;-75
2023/06/29 09:48:12;;;;;;;1999.90;999.90;;;;;;;;;;5069251;28;20049;-75
2023/06/29 09:50:38;;;;;;;1999.90;999.90;;;;;;;;;;5062337;28;20080;-75
2023/06/29 09:53:08;;;;;;;1999.90;999.90;;;;;;;;;;5070835;28;20521;-75
2023/06/29 09:55:37;;;;;;;1999.90;999.90;;;;;;;;;;5067724;28;20077;-75
2023/06/29 09:58:04;;;;;;;1999.90;999.90;;;;;;;;;;5063330;28;20044;-75
2023/06/29 10:00:32;;;;;;;1999.90;999.90;;;;;;;;;;5075837;28;20467;-75
2023/06/29 10:02:59;;;;;;;1999.90;999.90;;;;;;;;;;5067296;28;20076;-75
2023/06/29 10:05:29;;;;;;;1999.90;999.90;;;;;;;;;;5065144;28;20053;-75
2023/06/29 10:07:56;;;;;;;1999.90;999.90;;;;;;;;;;5074838;28;20131;-75
2023/06/29 10:10:25;;;;;;;1999.90;999.90;;;;;;;;;;5070817;28;20040;-75
2023/06/29 10:12:55;;;;;;;1999.90;999.90;;;;;;;;;;5063516;28;20110;-75
2023/06/29 10:15:22;;;;;;;1999.90;999.90;;;;;;;;;;5075440;28;20072;-75
2023/06/29 10:17:55;;;;;;;1999.90;999.90;;;;;;;;;;5071121;28;20045;-75
2023/06/29 10:20:25;;;;;;;1999.90;999.90;;;;;;;;;;5069353;28;20397;-75
2023/06/29 10:22:53;;;;;;;1999.90;999.90;;;;;;;;;;5081833;28;20060;-75
2023/06/29 10:25:21;;;;;;;1999.90;999.90;;;;;;;;;;5077796;28;20280;-75
2023/06/29 10:27:48;;;;;;;1999.90;999.90;;;;;;;;;;5069736;28;20071;-75
2023/06/29 10:30:19;;;;;;;1999.90;999.90;;;;;;;;;;5073421;28;20581;-75
2023/06/29 10:32:49;;;;;;;1999.90;999.90;;;;;;;;;;5071058;28;20127;-76
2023/06/29 10:35:17;;;;;;;1999.90;999.90;;;;;;;;;;5068778;28;20078;-75
2023/06/29 10:37:45;;;;;;;1999.90;999.90;;;;;;;;;;5072042;28;20052;-74
2023/06/29 10:40:15;;;;;;;1999.90;999.90;;;;;;;;;;5072243;28;20048;-74
2023/06/29 10:42:55;;;;;;;1999.90;999.90;;;;;;;;;;5062320;28;20492;-75
2023/06/29 10:45:32;;;;;;;1999.90;999.90;;;;;;;;;;5067903;28;20493;-75
2023/06/29 10:48:01;;;;;;;1999.90;999.90;;;;;;;;;;5067531;28;20377;-75
2023/06/29 10:50:30;;;;;;;1999.90;999.90;;;;;;;;;;5065959;28;20078;-75
2023/06/29 10:52:59;;;;;;;1999.90;999.90;;;;;;;;;;5074692;28;20048;-75
2023/06/29 10:55:28;;;;;;;1999.90;999.90;;;;;;;;;;5067389;28;20505;-76
2023/06/29 10:57:56;;;;;;;1999.90;999.90;;;;;;;;;;5069096;28;20052;-75
2023/06/29 11:00:24;;;;;;;1999.90;999.90;;;;;;;;;;5072234;28;20049;-75
2023/06/29 11:02:51;;;;;;;1999.90;999.90;;;;;;;;;;5069588;28;20052;-76
2023/06/29 11:05:18;;;;;;;1999.90;999.90;;;;;;;;;;5067676;28;20055;-76
2023/06/29 11:07:50;;;;;;;1999.90;999.90;;;;;;;;;;5070062;28;20045;-75
2023/06/29 11:10:18;;;;;;;1999.90;999.90;;;;;;;;;;5068687;28;20068;-75
2023/06/29 11:12:45;;;;;;;1999.90;999.90;;;;;;;;;;5071831;28;20043;-75
2023/06/29 11:15:13;;;;;;;1999.90;999.90;;;;;;;;;;5076809;28;20049;-75
2023/06/29 11:17:39;;;;;;;1999.90;999.90;;;;;;;;;;5069448;28;20052;-75
2023/06/29 11:20:07;;;;;;;1999.90;999.90;;;;;;;;;;5065940;28;20052;-75
2023/06/29 11:22:34;;;;;;;1999.90;999.90;;;;;;;;;;5072344;28;20044;-75
2023/06/29 11:25:01;;;;;;;1999.90;999.90;;;;;;;;;;5068781;28;20561;-75
2023/06/29 11:27:28;;;;;;;1999.90;999.90;;;;;;;;;;5070881;28;20051;-75
2023/06/29 11:29:55;;;;;;;1999.90;999.90;;;;;;;;;;5072480;28;20048;-74
2023/06/29 11:32:23;;;;;;;1999.90;999.90;;;;;;;;;;5069669;28;20056;-74
2023/06/29 11:34:56;;;;;;;1999.90;999.90;;;;;;;;;;5064997;28;20045;-76
2023/06/29 11:37:23;;;;;;;1999.90;999.90;;;;;;;;;;5071147;28;20044;-75
2023/06/29 11:39:50;;;;;;;1999.90;999.90;;;;;;;;;;5062920;28;20558;-75
2023/06/29 11:42:21;;;;;;;1999.90;999.90;;;;;;;;;;5069738;28;20048;-74
2023/06/29 11:44:48;;;;;;;1999.90;999.90;;;;;;;;;;5072289;28;20040;-74
2023/06/29 11:47:15;;;;;;;1999.90;999.90;;;;;;;;;;5068115;28;20056;-75
2023/06/29 11:49:42;;;;;;;1999.90;999.90;;;;;;;;;;5067796;28;20094;-75
2023/06/29 11:52:08;;;;;;;1999.90;999.90;;;;;;;;;;5072768;28;20403;-75
2023/06/29 11:54:35;;;;;;;1999.90;999.90;;;;;;;;;;5069861;28;20080;-74
2023/06/29 11:57:02;;;;;;;1999.90;999.90;;;;;;;;;;5069469;28;20045;-75
2023/06/29 11:59:31;;;;;;;1999.90;999.90;;;;;;;;;;5075384;28;20443;-75
2023/06/29 12:01:57;;;;;;;1999.90;999.90;;;;;;;;;;5067881;28;20067;-75
2023/06/29 12:04:24;;;;;;;1999.90;999.90;;;;;;;;;;5068740;28;20048;-75
2023/06/29 12:06:51;;;;;;;1999.90;999.90;;;;;;;;;;5075714;28;20057;-75
2023/06/29 12:09:17;;;;;;;1999.90;999.90;;;;;;;;;;5073331;28;20123;-74
2023/06/29 12:11:44;;;;;;;1999.90;999.90;;;;;;;;;;5068504;28;20801;-74
2023/06/29 12:14:10;;;;;;;1999.90;999.90;;;;;;;;;;5073906;28;20400;-74
2023/06/29 12:16:40;;;;;;;1999.90;999.90;;;;;;;;;;5067967;28;20045;-75
2023/06/29 12:19:11;;;;;;;1999.90;999.90;;;;;;;;;;5066534;28;20048;-75
2023/06/29 12:21:37;;;;;;;1999.90;999.90;;;;;;;;;;5073118;28;20412;-75
2023/06/29 12:24:04;;;;;;;1999.90;999.90;;;;;;;;;;5069237;28;20056;-75
2023/06/29 12:26:30;;;;;;;1999.90;999.90;;;;;;;;;;5066538;28;20131;-75
2023/06/29 12:28:57;;;;;;;1999.90;999.90;;;;;;;;;;5076605;28;20048;-75
2023/06/29 12:31:27;;;;;;;1999.90;999.90;;;;;;;;;;5068908;28;20045;-75
2023/06/29 12:33:54;;;;;;;1999.90;999.90;;;;;;;;;;5065446;28;20057;-75
2023/06/29 12:36:21;;;;;;;1999.90;999.90;;;;;;;;;;5063846;28;20045;-75
2023/06/29 12:38:48;;;;;;;1999.90;999.90;;;;;;;;;;5066698;28;20070;-76
2023/06/29 12:41:14;;;;;;;1999.90;999.90;;;;;;;;;;5061919;28;20052;-76
2023/06/29 12:43:41;;;;;;;1999.90;999.90;;;;;;;;;;5069190;28;20041;-76
2023/06/29 12:46:09;;;;;;;1999.90;999.90;;;;;;;;;;5068691;28;20055;-76
2023/06/29 12:48:35;;;;;;;1999.90;999.90;;;;;;;;;;5067532;28;20136;-76
2023/06/29 12:51:03;;;;;;;1999.90;999.90;;;;;;;;;;5069489;28;20094;-76
2023/06/29 12:53:32;;;;;;;1999.90;999.90;;;;;;;;;;5067002;28;20055;-76
2023/06/29 12:55:58;;;;;;;1999.90;999.90;;;;;;;;;;5069244;28;20395;-76
2023/06/29 12:58:25;;;;;;;1999.90;999.90;;;;;;;;;;5075203;28;20126;-75
2023/06/29 13:00:51;;;;;;;1999.90;999.90;;;;;;;;;;5071687;28;20063;-76
2023/06/29 13:03:18;;;;;;;1999.90;999.90;;;;;;;;;;5064803;28;20093;-76
2023/06/29 13:05:46;;;;;;;1999.90;999.90;;;;;;;;;;5065580;28;20041;-76
2023/06/29 13:08:14;;;;;;;1999.90;999.90;;;;;;;;;;5064536;28;20049;-76
2023/06/29 13:10:41;;;;;;;1999.90;999.90;;;;;;;;;;5065713;28;20400;-76
2023/06/29 13:13:07;;;;;;;1999.90;999.90;;;;;;;;;;5070679;28;20075;-76
2023/06/29 13:15:34;;;;;;;1999.90;999.90;;;;;;;;;;5070569;28;20067;-76
2023/06/29 13:18:00;;;;;;;1999.90;999.90;;;;;;;;;;5064292;28;20123;-76
2023/06/29 13:20:27;;;;;;;1999.90;999.90;;;;;;;;;;5064975;28;20040;-76
2023/06/29 13:22:53;;;;;;;1999.90;999.90;;;;;;;;;;5068042;28;20049;-76
2023/06/29 13:25:21;;;;;;;1999.90;999.90;;;;;;;;;;5063200;28;20060;-76
2023/06/29 13:27:48;;;;;;;1999.90;999.90;;;;;;;;;;5071733;28;20048;-76
2023/06/29 13:30:15;;;;;;;1999.90;999.90;;;;;;;;;;5068363;28;20044;-76
2023/06/29 13:32:42;;;;;;;1999.90;999.90;;;;;;;;;;5067654;28;20041;-76
2023/06/29 13:35:09;;;;;;;1999.90;999.90;;;;;;;;;;5065619;28;20590;-76
2023/06/29 13:37:35;;;;;;;1999.90;999.90;;;;;;;;;;5070008;28;20040;-76
2023/06/29 13:40:03;;;;;;;1999.90;999.90;;;;;;;;;;5065633;28;20045;-75